Cross Key, Florida
Current Conditions -  °F | °C
As of 6:58 AM on Friday 19 Dec 2014 (Local Time) from KHST Reporting Station
Clear Clear  
Wind Chill: 58°   Ceiling: Unl
Heat Index: 58°   Visibility: 10mi
Dew Point: 53°   Wind: 3mph
Humidity: 85%   Direction: 350°N
Pressure: 30.08"   Gusts: NA
Location:  25.2553°N, 80.3918°W
Report Text: KHST 191158Z AUTO 35003KT 10SM CLR 14/12 A3008 RMK AO2 SLP189 T01440119 10156 20139 52008
Loading
Personal Weather Stations






























Interactive Weather Map New forecast layout! Learn more

10-Day Weather Forecast

Advertisements
Track Severe Weather on mobile